sensor_id;sensor_type;location;lat;lon;timestamp;temperature;humidity
9998;DHT22;5038;53.064;8.624;2022-08-18T00:01:08;21.70;99.90
9998;DHT22;5038;53.064;8.624;2022-08-18T00:03:40;21.70;99.90
9998;DHT22;5038;53.064;8.624;2022-08-18T00:06:28;21.70;99.90
9998;DHT22;5038;53.064;8.624;2022-08-18T00:08:59;21.70;99.90
9998;DHT22;5038;53.064;8.624;2022-08-18T00:11:31;21.70;99.90
9998;DHT22;5038;53.064;8.624;2022-08-18T00:14:11;21.60;99.90
9998;DHT22;5038;53.064;8.624;2022-08-18T00:16:50;21.60;99.90
9998;DHT22;5038;53.064;8.624;2022-08-18T00:19:21;21.60;99.90
9998;DHT22;5038;53.064;8.624;2022-08-18T00:22:10;21.50;99.90
9998;DHT22;5038;53.064;8.624;2022-08-18T00:24:41;21.50;99.90
9998;DHT22;5038;53.064;8.624;2022-08-18T00:27:16;21.50;99.90
9998;DHT22;5038;53.064;8.624;2022-08-18T00:29:50;21.40;99.90
9998;DHT22;5038;53.064;8.624;2022-08-18T00:32:20;21.40;99.90
9998;DHT22;5038;53.064;8.624;2022-08-18T00:34:50;21.40;99.90
9998;DHT22;5038;53.064;8.624;2022-08-18T00:37:19;21.30;99.90
9998;DHT22;5038;53.064;8.624;2022-08-18T00:39:50;21.30;99.90
9998;DHT22;5038;53.064;8.624;2022-08-18T00:42:21;21.30;99.90
9998;DHT22;5038;53.064;8.624;2022-08-18T00:44:58;21.20;99.90
9998;DHT22;5038;53.064;8.624;2022-08-18T00:47:27;21.10;99.90
9998;DHT22;5038;53.064;8.624;2022-08-18T00:50:12;21.00;99.90
9998;DHT22;5038;53.064;8.624;2022-08-18T00:52:48;21.00;99.90
9998;DHT22;5038;53.064;8.624;2022-08-18T00:55:17;20.90;99.90
9998;DHT22;5038;53.064;8.624;2022-08-18T00:57:50;20.90;99.90
9998;DHT22;5038;53.064;8.624;2022-08-18T01:00:20;20.90;99.90
9998;DHT22;5038;53.064;8.624;2022-08-18T01:02:53;20.90;99.90
9998;DHT22;5038;53.064;8.624;2022-08-18T01:05:31;20.80;99.90
9998;DHT22;5038;53.064;8.624;2022-08-18T01:08:01;20.80;99.90
9998;DHT22;5038;53.064;8.624;2022-08-18T01:10:32;20.80;99.90
9998;DHT22;5038;53.064;8.624;2022-08-18T01:13:01;20.80;99.90
9998;DHT22;5038;53.064;8.624;2022-08-18T01:15:29;20.80;99.90
9998;DHT22;5038;53.064;8.624;2022-08-18T01:18:00;20.80;99.90
9998;DHT22;5038;53.064;8.624;2022-08-18T01:20:53;20.80;99.90
9998;DHT22;5038;53.064;8.624;2022-08-18T01:23:56;20.80;99.90
9998;DHT22;5038;53.064;8.624;2022-08-18T01:26:26;20.80;99.90
9998;DHT22;5038;53.064;8.624;2022-08-18T01:28:54;20.70;99.90
9998;DHT22;5038;53.064;8.624;2022-08-18T01:31:32;20.70;99.90
9998;DHT22;5038;53.064;8.624;2022-08-18T01:34:04;20.70;99.90
9998;DHT22;5038;53.064;8.624;2022-08-18T01:36:35;20.70;99.90
9998;DHT22;5038;53.064;8.624;2022-08-18T01:39:07;20.70;99.90
9998;DHT22;5038;53.064;8.624;2022-08-18T01:41:35;20.70;99.90
9998;DHT22;5038;53.064;8.624;2022-08-18T01:44:04;20.70;99.90
9998;DHT22;5038;53.064;8.624;2022-08-18T01:46:35;20.70;99.90
9998;DHT22;5038;53.064;8.624;2022-08-18T01:49:04;20.70;99.90
9998;DHT22;5038;53.064;8.624;2022-08-18T01:51:34;20.70;99.90
9998;DHT22;5038;53.064;8.624;2022-08-18T01:54:10;20.70;99.90
9998;DHT22;5038;53.064;8.624;2022-08-18T01:56:40;20.70;99.90
9998;DHT22;5038;53.064;8.624;2022-08-18T01:59:10;20.70;99.90
9998;DHT22;5038;53.064;8.624;2022-08-18T02:01:43;20.70;99.90
9998;DHT22;5038;53.064;8.624;2022-08-18T02:04:20;20.70;99.90
9998;DHT22;5038;53.064;8.624;2022-08-18T02:07:06;20.70;99.90
9998;DHT22;5038;53.064;8.624;2022-08-18T02:09:38;20.60;99.90
9998;DHT22;5038;53.064;8.624;2022-08-18T02:12:07;20.60;99.90
9998;DHT22;5038;53.064;8.624;2022-08-18T02:14:36;20.60;99.90
9998;DHT22;5038;53.064;8.624;2022-08-18T02:17:06;20.60;99.90
9998;DHT22;5038;53.064;8.624;2022-08-18T02:19:37;20.60;99.90
9998;DHT22;5038;53.064;8.624;2022-08-18T02:22:06;20.60;99.90
9998;DHT22;5038;53.064;8.624;2022-08-18T02:24:35;20.60;99.90
9998;DHT22;5038;53.064;8.624;2022-08-18T02:27:04;20.60;99.90
9998;DHT22;5038;53.064;8.624;2022-08-18T02:29:33;20.60;99.90
9998;DHT22;5038;53.064;8.624;2022-08-18T02:32:01;20.60;99.90
9998;DHT22;5038;53.064;8.624;2022-08-18T02:34:29;20.60;99.90
9998;DHT22;5038;53.064;8.624;2022-08-18T02:36:58;20.60;99.90
9998;DHT22;5038;53.064;8.624;2022-08-18T02:39:27;20.60;99.90
9998;DHT22;5038;53.064;8.624;2022-08-18T02:41:55;20.60;99.90
9998;DHT22;5038;53.064;8.624;2022-08-18T02:44:25;20.60;99.90
9998;DHT22;5038;53.064;8.624;2022-08-18T02:46:53;20.60;99.90
9998;DHT22;5038;53.064;8.624;2022-08-18T02:49:21;20.70;99.90
9998;DHT22;5038;53.064;8.624;2022-08-18T02:51:51;20.70;99.90
9998;DHT22;5038;53.064;8.624;2022-08-18T02:54:21;20.70;99.90
9998;DHT22;5038;53.064;8.624;2022-08-18T02:56:50;20.60;99.90
9998;DHT22;5038;53.064;8.624;2022-08-18T02:59:21;20.60;99.90
9998;DHT22;5038;53.064;8.624;2022-08-18T03:01:54;20.60;99.90
9998;DHT22;5038;53.064;8.624;2022-08-18T03:04:25;20.70;99.90
9998;DHT22;5038;53.064;8.624;2022-08-18T03:06:58;20.70;99.90
9998;DHT22;5038;53.064;8.624;2022-08-18T03:09:27;20.70;99.90
9998;DHT22;5038;53.064;8.624;2022-08-18T03:11:57;20.60;99.90
9998;DHT22;5038;53.064;8.624;2022-08-18T03:14:25;20.70;99.90
9998;DHT22;5038;53.064;8.624;2022-08-18T03:16:55;20.70;99.90
9998;DHT22;5038;53.064;8.624;2022-08-18T03:19:24;20.60;99.90
9998;DHT22;5038;53.064;8.624;2022-08-18T03:21:55;20.70;99.90
9998;DHT22;5038;53.064;8.624;2022-08-18T03:24:29;20.70;99.90
9998;DHT22;5038;53.064;8.624;2022-08-18T03:27:00;20.70;99.90
9998;DHT22;5038;53.064;8.624;2022-08-18T03:29:32;20.70;99.90
9998;DHT22;5038;53.064;8.624;2022-08-18T03:32:03;20.70;99.90
9998;DHT22;5038;53.064;8.624;2022-08-18T03:34:32;20.70;99.90
9998;DHT22;5038;53.064;8.624;2022-08-18T03:37:00;20.70;99.90
9998;DHT22;5038;53.064;8.624;2022-08-18T03:39:28;20.70;99.90
9998;DHT22;5038;53.064;8.624;2022-08-18T03:41:56;20.70;99.90
9998;DHT22;5038;53.064;8.624;2022-08-18T03:44:29;20.70;99.90
9998;DHT22;5038;53.064;8.624;2022-08-18T03:46:58;20.70;99.90
9998;DHT22;5038;53.064;8.624;2022-08-18T03:49:28;20.70;99.90
9998;DHT22;5038;53.064;8.624;2022-08-18T03:51:56;20.70;99.90
9998;DHT22;5038;53.064;8.624;2022-08-18T03:54:27;20.70;99.90
9998;DHT22;5038;53.064;8.624;2022-08-18T03:56:55;20.70;99.90
9998;DHT22;5038;53.064;8.624;2022-08-18T03:59:24;20.70;99.90
9998;DHT22;5038;53.064;8.624;2022-08-18T04:01:54;20.70;99.90
9998;DHT22;5038;53.064;8.624;2022-08-18T04:04:23;20.70;99.90
9998;DHT22;5038;53.064;8.624;2022-08-18T04:06:55;20.70;99.90
9998;DHT22;5038;53.064;8.624;2022-08-18T04:09:25;20.70;99.90
9998;DHT22;5038;53.064;8.624;2022-08-18T04:11:55;20.70;99.90
9998;DHT22;5038;53.064;8.624;2022-08-18T04:14:25;20.70;99.90
9998;DHT22;5038;53.064;8.624;2022-08-18T04:16:56;20.70;99.90
9998;DHT22;5038;53.064;8.624;2022-08-18T04:19:25;20.70;99.90
9998;DHT22;5038;53.064;8.624;2022-08-18T04:21:56;20.70;99.90
9998;DHT22;5038;53.064;8.624;2022-08-18T04:24:26;20.70;99.90
9998;DHT22;5038;53.064;8.624;2022-08-18T04:27:00;20.70;99.90
9998;DHT22;5038;53.064;8.624;2022-08-18T04:29:30;20.70;99.90
9998;DHT22;5038;53.064;8.624;2022-08-18T04:31:59;20.70;99.90
9998;DHT22;5038;53.064;8.624;2022-08-18T04:34:28;20.70;99.90
9998;DHT22;5038;53.064;8.624;2022-08-18T04:36:58;20.70;99.90
9998;DHT22;5038;53.064;8.624;2022-08-18T04:39:28;20.70;99.90
9998;DHT22;5038;53.064;8.624;2022-08-18T04:41:56;20.60;99.90
9998;DHT22;5038;53.064;8.624;2022-08-18T04:44:25;20.60;99.90
9998;DHT22;5038;53.064;8.624;2022-08-18T04:46:53;20.60;99.90
9998;DHT22;5038;53.064;8.624;2022-08-18T04:49:23;20.60;99.90
9998;DHT22;5038;53.064;8.624;2022-08-18T04:51:54;20.60;99.90
9998;DHT22;5038;53.064;8.624;2022-08-18T04:55:02;20.60;99.90
9998;DHT22;5038;53.064;8.624;2022-08-18T04:57:31;20.60;99.90
9998;DHT22;5038;53.064;8.624;2022-08-18T05:00:03;20.60;99.90
9998;DHT22;5038;53.064;8.624;2022-08-18T05:02:31;20.60;99.90
9998;DHT22;5038;53.064;8.624;2022-08-18T05:05:00;20.60;99.90
9998;DHT22;5038;53.064;8.624;2022-08-18T05:07:30;20.60;99.90
9998;DHT22;5038;53.064;8.624;2022-08-18T05:09:59;20.60;99.90
9998;DHT22;5038;53.064;8.624;2022-08-18T05:12:28;20.60;99.90
9998;DHT22;5038;53.064;8.624;2022-08-18T05:14:56;20.60;99.90
9998;DHT22;5038;53.064;8.624;2022-08-18T05:17:25;20.60;99.90
9998;DHT22;5038;53.064;8.624;2022-08-18T05:19:57;20.60;99.90
9998;DHT22;5038;53.064;8.624;2022-08-18T05:22:27;20.50;99.90
9998;DHT22;5038;53.064;8.624;2022-08-18T05:24:57;20.50;99.90
9998;DHT22;5038;53.064;8.624;2022-08-18T05:27:32;20.50;99.90
9998;DHT22;5038;53.064;8.624;2022-08-18T05:30:01;20.50;99.90
9998;DHT22;5038;53.064;8.624;2022-08-18T05:32:32;20.40;99.90
9998;DHT22;5038;53.064;8.624;2022-08-18T05:35:20;20.40;99.90
9998;DHT22;5038;53.064;8.624;2022-08-18T05:38:11;20.40;99.90
9998;DHT22;5038;53.064;8.624;2022-08-18T05:40:45;20.40;99.90
9998;DHT22;5038;53.064;8.624;2022-08-18T05:43:24;20.40;99.90
9998;DHT22;5038;53.064;8.624;2022-08-18T05:45:52;20.40;99.90
9998;DHT22;5038;53.064;8.624;2022-08-18T05:48:22;20.50;99.90
9998;DHT22;5038;53.064;8.624;2022-08-18T05:50:51;20.50;99.90
9998;DHT22;5038;53.064;8.624;2022-08-18T05:53:19;20.50;99.90
9998;DHT22;5038;53.064;8.624;2022-08-18T05:56:09;20.50;99.90
9998;DHT22;5038;53.064;8.624;2022-08-18T05:58:58;20.50;99.90
9998;DHT22;5038;53.064;8.624;2022-08-18T06:01:31;20.50;99.90
9998;DHT22;5038;53.064;8.624;2022-08-18T06:04:04;20.50;99.90
9998;DHT22;5038;53.064;8.624;2022-08-18T06:06:36;20.50;99.90
9998;DHT22;5038;53.064;8.624;2022-08-18T06:09:22;20.50;99.90
9998;DHT22;5038;53.064;8.624;2022-08-18T06:11:52;20.60;99.90
9998;DHT22;5038;53.064;8.624;2022-08-18T06:14:25;20.60;99.90
9998;DHT22;5038;53.064;8.624;2022-08-18T06:16:58;20.60;99.90
9998;DHT22;5038;53.064;8.624;2022-08-18T06:19:38;20.60;99.90
9998;DHT22;5038;53.064;8.624;2022-08-18T06:22:18;20.70;99.90
9998;DHT22;5038;53.064;8.624;2022-08-18T06:24:53;20.70;99.90
9998;DHT22;5038;53.064;8.624;2022-08-18T06:27:29;20.70;99.90
9998;DHT22;5038;53.064;8.624;2022-08-18T06:30:08;20.80;99.90
9998;DHT22;5038;53.064;8.624;2022-08-18T06:33:00;20.80;99.90
9998;DHT22;5038;53.064;8.624;2022-08-18T06:35:35;20.90;99.90
9998;DHT22;5038;53.064;8.624;2022-08-18T06:38:25;20.90;99.90
9998;DHT22;5038;53.064;8.624;2022-08-18T06:41:15;21.00;99.90
9998;DHT22;5038;53.064;8.624;2022-08-18T06:44:07;21.10;99.90
9998;DHT22;5038;53.064;8.624;2022-08-18T06:46:40;21.20;99.90
9998;DHT22;5038;53.064;8.624;2022-08-18T06:49:11;21.20;99.90
9998;DHT22;5038;53.064;8.624;2022-08-18T06:51:39;21.20;99.90
9998;DHT22;5038;53.064;8.624;2022-08-18T06:54:26;21.30;99.90
9998;DHT22;5038;53.064;8.624;2022-08-18T06:56:56;21.30;99.90
9998;DHT22;5038;53.064;8.624;2022-08-18T06:59:27;21.20;99.90
9998;DHT22;5038;53.064;8.624;2022-08-18T07:01:58;21.20;99.90
9998;DHT22;5038;53.064;8.624;2022-08-18T07:04:35;21.20;99.90
9998;DHT22;5038;53.064;8.624;2022-08-18T07:07:19;21.20;99.90
9998;DHT22;5038;53.064;8.624;2022-08-18T07:10:28;21.20;99.90
9998;DHT22;5038;53.064;8.624;2022-08-18T07:13:11;21.20;99.90
9998;DHT22;5038;53.064;8.624;2022-08-18T07:15:41;21.20;99.90
9998;DHT22;5038;53.064;8.624;2022-08-18T07:18:14;21.20;99.90
9998;DHT22;5038;53.064;8.624;2022-08-18T07:20:45;21.30;99.90
9998;DHT22;5038;53.064;8.624;2022-08-18T07:23:26;21.30;99.90
9998;DHT22;5038;53.064;8.624;2022-08-18T07:26:04;21.30;99.90
9998;DHT22;5038;53.064;8.624;2022-08-18T07:28:36;21.30;99.90
9998;DHT22;5038;53.064;8.624;2022-08-18T07:31:13;21.30;99.90
9998;DHT22;5038;53.064;8.624;2022-08-18T07:33:50;21.30;99.90
9998;DHT22;5038;53.064;8.624;2022-08-18T07:36:25;21.30;99.90
9998;DHT22;5038;53.064;8.624;2022-08-18T07:38:59;21.30;99.90
9998;DHT22;5038;53.064;8.624;2022-08-18T07:41:33;21.40;99.90
9998;DHT22;5038;53.064;8.624;2022-08-18T07:44:12;21.40;99.90
9998;DHT22;5038;53.064;8.624;2022-08-18T07:46:49;21.40;99.90
9998;DHT22;5038;53.064;8.624;2022-08-18T07:49:22;21.50;99.90
9998;DHT22;5038;53.064;8.624;2022-08-18T07:51:56;21.50;99.90
9998;DHT22;5038;53.064;8.624;2022-08-18T07:54:41;21.60;99.90
9998;DHT22;5038;53.064;8.624;2022-08-18T07:57:22;21.70;99.90
9998;DHT22;5038;53.064;8.624;2022-08-18T08:00:00;21.80;99.90
9998;DHT22;5038;53.064;8.624;2022-08-18T08:02:51;21.80;99.90
9998;DHT22;5038;53.064;8.624;2022-08-18T08:05:40;21.90;99.90
9998;DHT22;5038;53.064;8.624;2022-08-18T08:08:18;22.00;99.90
9998;DHT22;5038;53.064;8.624;2022-08-18T08:11:00;22.00;99.90
9998;DHT22;5038;53.064;8.624;2022-08-18T08:13:41;22.00;99.90
9998;DHT22;5038;53.064;8.624;2022-08-18T08:16:30;22.00;99.90
9998;DHT22;5038;53.064;8.624;2022-08-18T08:19:07;22.00;99.90
9998;DHT22;5038;53.064;8.624;2022-08-18T08:21:46;22.00;99.90
9998;DHT22;5038;53.064;8.624;2022-08-18T08:24:24;22.00;99.90
9998;DHT22;5038;53.064;8.624;2022-08-18T08:27:03;22.10;99.90
9998;DHT22;5038;53.064;8.624;2022-08-18T08:29:42;22.10;99.90
9998;DHT22;5038;53.064;8.624;2022-08-18T08:32:19;22.10;99.90
9998;DHT22;5038;53.064;8.624;2022-08-18T08:34:52;22.20;99.90
9998;DHT22;5038;53.064;8.624;2022-08-18T08:37:29;22.20;99.90
9998;DHT22;5038;53.064;8.624;2022-08-18T08:40:04;22.20;99.90
9998;DHT22;5038;53.064;8.624;2022-08-18T08:42:43;22.30;99.90
9998;DHT22;5038;53.064;8.624;2022-08-18T08:45:15;22.30;99.90
9998;DHT22;5038;53.064;8.624;2022-08-18T08:47:55;22.30;99.90
9998;DHT22;5038;53.064;8.624;2022-08-18T08:50:38;22.40;99.90
9998;DHT22;5038;53.064;8.624;2022-08-18T08:53:16;22.40;99.90
9998;DHT22;5038;53.064;8.624;2022-08-18T08:55:48;22.40;99.90
9998;DHT22;5038;53.064;8.624;2022-08-18T08:58:21;22.50;99.90
9998;DHT22;5038;53.064;8.624;2022-08-18T09:00:52;22.60;99.90
9998;DHT22;5038;53.064;8.624;2022-08-18T09:03:36;22.60;99.90
9998;DHT22;5038;53.064;8.624;2022-08-18T09:06:16;22.70;99.90
9998;DHT22;5038;53.064;8.624;2022-08-18T09:08:59;22.80;99.90
9998;DHT22;5038;53.064;8.624;2022-08-18T09:11:51;22.80;99.90
9998;DHT22;5038;53.064;8.624;2022-08-18T09:14:41;22.90;99.90
9998;DHT22;5038;53.064;8.624;2022-08-18T09:20:39;22.90;99.90
9998;DHT22;5038;53.064;8.624;2022-08-18T09:23:17;23.00;99.90
9998;DHT22;5038;53.064;8.624;2022-08-18T09:25:49;23.10;99.90
9998;DHT22;5038;53.064;8.624;2022-08-18T09:28:21;23.20;99.90
9998;DHT22;5038;53.064;8.624;2022-08-18T09:33:52;23.30;99.90
9998;DHT22;5038;53.064;8.624;2022-08-18T09:36:46;23.40;99.90
9998;DHT22;5038;53.064;8.624;2022-08-18T09:39:25;23.50;99.90
9998;DHT22;5038;53.064;8.624;2022-08-18T09:42:31;23.60;99.90
9998;DHT22;5038;53.064;8.624;2022-08-18T09:45:41;23.70;99.90
9998;DHT22;5038;53.064;8.624;2022-08-18T09:48:30;23.80;99.90
9998;DHT22;5038;53.064;8.624;2022-08-18T09:51:30;23.90;99.90
9998;DHT22;5038;53.064;8.624;2022-08-18T09:54:17;24.00;99.90
9998;DHT22;5038;53.064;8.624;2022-08-18T09:57:16;24.20;99.90
9998;DHT22;5038;53.064;8.624;2022-08-18T10:00:24;24.30;99.90
9998;DHT22;5038;53.064;8.624;2022-08-18T10:03:09;24.50;99.90
9998;DHT22;5038;53.064;8.624;2022-08-18T10:05:55;24.50;99.90
9998;DHT22;5038;53.064;8.624;2022-08-18T10:09:01;24.60;99.90
9998;DHT22;5038;53.064;8.624;2022-08-18T10:12:13;24.70;99.90
9998;DHT22;5038;53.064;8.624;2022-08-18T10:15:22;24.80;99.90
9998;DHT22;5038;53.064;8.624;2022-08-18T10:18:13;24.80;99.90
9998;DHT22;5038;53.064;8.624;2022-08-18T10:20:55;24.80;99.90
9998;DHT22;5038;53.064;8.624;2022-08-18T10:23:46;24.80;99.90
9998;DHT22;5038;53.064;8.624;2022-08-18T10:29:57;24.80;99.90
9998;DHT22;5038;53.064;8.624;2022-08-18T10:32:44;24.80;99.90
9998;DHT22;5038;53.064;8.624;2022-08-18T10:35:55;24.80;99.90
9998;DHT22;5038;53.064;8.624;2022-08-18T10:38:41;24.90;99.90
9998;DHT22;5038;53.064;8.624;2022-08-18T10:41:25;25.00;99.90
9998;DHT22;5038;53.064;8.624;2022-08-18T10:43:59;25.10;99.90
9998;DHT22;5038;53.064;8.624;2022-08-18T10:46:49;25.10;99.90
9998;DHT22;5038;53.064;8.624;2022-08-18T10:49:24;25.10;99.90
9998;DHT22;5038;53.064;8.624;2022-08-18T10:55:01;25.10;99.90
9998;DHT22;5038;53.064;8.624;2022-08-18T10:57:51;25.20;99.90
9998;DHT22;5038;53.064;8.624;2022-08-18T11:00:29;25.30;99.90
9998;DHT22;5038;53.064;8.624;2022-08-18T11:03:12;25.40;99.90
9998;DHT22;5038;53.064;8.624;2022-08-18T11:06:07;25.50;99.90
9998;DHT22;5038;53.064;8.624;2022-08-18T11:08:50;25.70;99.90
9998;DHT22;5038;53.064;8.624;2022-08-18T11:11:25;25.80;99.90
9998;DHT22;5038;53.064;8.624;2022-08-18T11:14:20;25.80;99.90
9998;DHT22;5038;53.064;8.624;2022-08-18T11:16:57;25.80;99.90
9998;DHT22;5038;53.064;8.624;2022-08-18T11:19:35;25.70;99.90
9998;DHT22;5038;53.064;8.624;2022-08-18T11:22:22;25.60;99.90
9998;DHT22;5038;53.064;8.624;2022-08-18T11:24:59;25.50;99.90
9998;DHT22;5038;53.064;8.624;2022-08-18T11:27:33;25.40;99.90
9998;DHT22;5038;53.064;8.624;2022-08-18T11:30:04;25.30;99.90
9998;DHT22;5038;53.064;8.624;2022-08-18T11:32:35;25.20;99.90
9998;DHT22;5038;53.064;8.624;2022-08-18T11:35:12;25.20;99.90
9998;DHT22;5038;53.064;8.624;2022-08-18T11:37:47;25.20;99.90
9998;DHT22;5038;53.064;8.624;2022-08-18T11:40:39;25.20;99.90
9998;DHT22;5038;53.064;8.624;2022-08-18T11:43:30;25.20;99.90
9998;DHT22;5038;53.064;8.624;2022-08-18T11:46:13;25.30;99.90
9998;DHT22;5038;53.064;8.624;2022-08-18T11:48:44;25.30;99.90
9998;DHT22;5038;53.064;8.624;2022-08-18T11:51:22;25.30;99.90
9998;DHT22;5038;53.064;8.624;2022-08-18T11:53:54;25.30;99.90
9998;DHT22;5038;53.064;8.624;2022-08-18T11:56:27;25.30;99.90
9998;DHT22;5038;53.064;8.624;2022-08-18T11:59:31;25.30;99.90
9998;DHT22;5038;53.064;8.624;2022-08-18T12:02:24;25.30;99.90
9998;DHT22;5038;53.064;8.624;2022-08-18T12:04:55;25.30;99.90
9998;DHT22;5038;53.064;8.624;2022-08-18T12:07:36;25.30;99.90
9998;DHT22;5038;53.064;8.624;2022-08-18T12:10:27;25.30;99.90
9998;DHT22;5038;53.064;8.624;2022-08-18T12:12:56;25.30;99.90
9998;DHT22;5038;53.064;8.624;2022-08-18T12:15:29;25.30;99.90
9998;DHT22;5038;53.064;8.624;2022-08-18T12:18:10;25.40;99.90
9998;DHT22;5038;53.064;8.624;2022-08-18T12:20:54;25.40;99.90
9998;DHT22;5038;53.064;8.624;2022-08-18T12:23:23;25.50;99.90
9998;DHT22;5038;53.064;8.624;2022-08-18T12:25:52;25.50;99.90
9998;DHT22;5038;53.064;8.624;2022-08-18T12:28:21;25.50;99.90
9998;DHT22;5038;53.064;8.624;2022-08-18T12:34:15;25.50;99.90
9998;DHT22;5038;53.064;8.624;2022-08-18T12:36:54;25.50;99.90
9998;DHT22;5038;53.064;8.624;2022-08-18T12:39:22;25.50;99.90
9998;DHT22;5038;53.064;8.624;2022-08-18T12:41:52;25.50;99.90
9998;DHT22;5038;53.064;8.624;2022-08-18T12:44:20;25.60;99.90
9998;DHT22;5038;53.064;8.624;2022-08-18T12:46:53;25.60;99.90
9998;DHT22;5038;53.064;8.624;2022-08-18T12:49:23;25.70;99.90
9998;DHT22;5038;53.064;8.624;2022-08-18T12:52:12;25.70;99.90
9998;DHT22;5038;53.064;8.624;2022-08-18T12:54:43;25.80;99.90
9998;DHT22;5038;53.064;8.624;2022-08-18T12:57:26;25.80;99.90
9998;DHT22;5038;53.064;8.624;2022-08-18T13:00:15;25.80;99.90
9998;DHT22;5038;53.064;8.624;2022-08-18T13:02:44;25.80;99.90
9998;DHT22;5038;53.064;8.624;2022-08-18T13:05:13;25.80;99.90
9998;DHT22;5038;53.064;8.624;2022-08-18T13:07:41;25.80;99.90
9998;DHT22;5038;53.064;8.624;2022-08-18T13:10:10;25.80;99.90
9998;DHT22;5038;53.064;8.624;2022-08-18T13:12:59;25.80;99.90
9998;DHT22;5038;53.064;8.624;2022-08-18T13:15:28;25.70;99.90
9998;DHT22;5038;53.064;8.624;2022-08-18T13:17:56;25.70;99.90
9998;DHT22;5038;53.064;8.624;2022-08-18T13:20:25;25.70;99.90
9998;DHT22;5038;53.064;8.624;2022-08-18T13:22:53;25.60;99.90
9998;DHT22;5038;53.064;8.624;2022-08-18T13:25:22;25.60;99.90
9998;DHT22;5038;53.064;8.624;2022-08-18T13:28:00;25.60;99.90
9998;DHT22;5038;53.064;8.624;2022-08-18T13:30:28;25.50;99.90
9998;DHT22;5038;53.064;8.624;2022-08-18T13:32:59;25.50;99.90
9998;DHT22;5038;53.064;8.624;2022-08-18T13:35:32;25.40;99.90
9998;DHT22;5038;53.064;8.624;2022-08-18T13:38:10;25.30;99.90
9998;DHT22;5038;53.064;8.624;2022-08-18T13:40:47;25.30;99.90
9998;DHT22;5038;53.064;8.624;2022-08-18T13:43:19;25.20;99.90
9998;DHT22;5038;53.064;8.624;2022-08-18T13:45:49;25.20;99.90
9998;DHT22;5038;53.064;8.624;2022-08-18T13:48:21;25.20;99.90
9998;DHT22;5038;53.064;8.624;2022-08-18T13:50:52;25.30;99.90
9998;DHT22;5038;53.064;8.624;2022-08-18T13:53:22;25.30;99.90
9998;DHT22;5038;53.064;8.624;2022-08-18T13:55:54;25.30;99.90
9998;DHT22;5038;53.064;8.624;2022-08-18T13:58:27;25.30;99.90
9998;DHT22;5038;53.064;8.624;2022-08-18T14:00:57;25.30;99.90
9998;DHT22;5038;53.064;8.624;2022-08-18T14:03:45;25.40;99.90
9998;DHT22;5038;53.064;8.624;2022-08-18T14:06:16;25.30;99.90
9998;DHT22;5038;53.064;8.624;2022-08-18T14:08:50;25.30;99.90
9998;DHT22;5038;53.064;8.624;2022-08-18T14:11:20;25.30;99.90
9998;DHT22;5038;53.064;8.624;2022-08-18T14:13:53;25.30;99.90
9998;DHT22;5038;53.064;8.624;2022-08-18T14:16:22;25.20;99.90
9998;DHT22;5038;53.064;8.624;2022-08-18T14:18:53;25.20;99.90
9998;DHT22;5038;53.064;8.624;2022-08-18T14:21:39;25.20;99.90
9998;DHT22;5038;53.064;8.624;2022-08-18T14:24:26;25.20;99.90
9998;DHT22;5038;53.064;8.624;2022-08-18T14:27:15;25.10;99.90
9998;DHT22;5038;53.064;8.624;2022-08-18T14:29:45;25.20;99.90
9998;DHT22;5038;53.064;8.624;2022-08-18T14:32:19;25.20;99.90
9998;DHT22;5038;53.064;8.624;2022-08-18T14:34:56;25.20;99.90
9998;DHT22;5038;53.064;8.624;2022-08-18T14:37:45;25.30;99.90
9998;DHT22;5038;53.064;8.624;2022-08-18T14:40:14;25.30;99.90
9998;DHT22;5038;53.064;8.624;2022-08-18T14:42:43;25.40;99.90
9998;DHT22;5038;53.064;8.624;2022-08-18T14:45:23;25.40;99.90
9998;DHT22;5038;53.064;8.624;2022-08-18T14:48:00;25.40;99.90
9998;DHT22;5038;53.064;8.624;2022-08-18T14:50:34;25.50;99.90
9998;DHT22;5038;53.064;8.624;2022-08-18T14:53:03;25.50;99.90
9998;DHT22;5038;53.064;8.624;2022-08-18T14:55:31;25.50;99.90
9998;DHT22;5038;53.064;8.624;2022-08-18T14:58:00;25.50;99.90
9998;DHT22;5038;53.064;8.624;2022-08-18T15:00:29;25.60;99.90
9998;DHT22;5038;53.064;8.624;2022-08-18T15:02:58;25.70;99.90
9998;DHT22;5038;53.064;8.624;2022-08-18T15:05:27;25.70;99.90
9998;DHT22;5038;53.064;8.624;2022-08-18T15:08:00;25.80;99.90
9998;DHT22;5038;53.064;8.624;2022-08-18T15:10:31;25.80;99.90
9998;DHT22;5038;53.064;8.624;2022-08-18T15:13:01;25.70;99.90
9998;DHT22;5038;53.064;8.624;2022-08-18T15:15:30;25.70;99.90
9998;DHT22;5038;53.064;8.624;2022-08-18T15:18:18;25.70;99.90
9998;DHT22;5038;53.064;8.624;2022-08-18T15:20:49;25.60;99.90
9998;DHT22;5038;53.064;8.624;2022-08-18T15:23:45;25.60;99.90
9998;DHT22;5038;53.064;8.624;2022-08-18T15:26:46;25.50;99.90
9998;DHT22;5038;53.064;8.624;2022-08-18T15:29:24;25.50;99.90
9998;DHT22;5038;53.064;8.624;2022-08-18T15:31:57;25.60;99.90
9998;DHT22;5038;53.064;8.624;2022-08-18T15:34:32;25.70;99.90
9998;DHT22;5038;53.064;8.624;2022-08-18T15:37:17;25.70;99.90
9998;DHT22;5038;53.064;8.624;2022-08-18T15:39:58;25.80;99.90
9998;DHT22;5038;53.064;8.624;2022-08-18T15:42:28;25.70;99.90
9998;DHT22;5038;53.064;8.624;2022-08-18T15:44:59;25.80;99.90
9998;DHT22;5038;53.064;8.624;2022-08-18T15:47:39;25.80;99.90
9998;DHT22;5038;53.064;8.624;2022-08-18T15:50:09;25.80;99.90
9998;DHT22;5038;53.064;8.624;2022-08-18T15:52:54;25.80;99.90
9998;DHT22;5038;53.064;8.624;2022-08-18T15:55:26;25.80;99.90
9998;DHT22;5038;53.064;8.624;2022-08-18T15:57:55;25.70;99.90
9998;DHT22;5038;53.064;8.624;2022-08-18T16:00:26;25.60;99.90
9998;DHT22;5038;53.064;8.624;2022-08-18T16:02:59;25.60;99.90
9998;DHT22;5038;53.064;8.624;2022-08-18T16:05:31;25.50;99.90
9998;DHT22;5038;53.064;8.624;2022-08-18T16:08:02;25.50;99.90
9998;DHT22;5038;53.064;8.624;2022-08-18T16:10:34;25.40;99.90
9998;DHT22;5038;53.064;8.624;2022-08-18T16:13:05;25.40;99.90
9998;DHT22;5038;53.064;8.624;2022-08-18T16:15:35;25.30;99.90
9998;DHT22;5038;53.064;8.624;2022-08-18T16:18:07;25.30;99.90
9998;DHT22;5038;53.064;8.624;2022-08-18T16:20:36;25.30;99.90
9998;DHT22;5038;53.064;8.624;2022-08-18T16:23:05;25.30;99.90
9998;DHT22;5038;53.064;8.624;2022-08-18T16:25:33;25.40;99.90
9998;DHT22;5038;53.064;8.624;2022-08-18T16:28:04;25.30;99.90
9998;DHT22;5038;53.064;8.624;2022-08-18T16:30:33;25.30;99.90
9998;DHT22;5038;53.064;8.624;2022-08-18T16:33:02;25.30;99.90
9998;DHT22;5038;53.064;8.624;2022-08-18T16:35:34;25.20;99.90
9998;DHT22;5038;53.064;8.624;2022-08-18T16:38:04;25.10;99.90
9998;DHT22;5038;53.064;8.624;2022-08-18T16:40:33;25.10;99.90
9998;DHT22;5038;53.064;8.624;2022-08-18T16:43:01;25.00;99.90
9998;DHT22;5038;53.064;8.624;2022-08-18T16:45:30;24.90;99.90
9998;DHT22;5038;53.064;8.624;2022-08-18T16:48:00;24.90;99.90
9998;DHT22;5038;53.064;8.624;2022-08-18T16:50:29;24.90;99.90
9998;DHT22;5038;53.064;8.624;2022-08-18T16:52:58;24.80;99.90
9998;DHT22;5038;53.064;8.624;2022-08-18T16:55:26;24.80;99.90
9998;DHT22;5038;53.064;8.624;2022-08-18T16:57:56;24.80;99.90
9998;DHT22;5038;53.064;8.624;2022-08-18T17:00:41;24.80;99.90
9998;DHT22;5038;53.064;8.624;2022-08-18T17:03:27;24.90;99.90
9998;DHT22;5038;53.064;8.624;2022-08-18T17:06:14;25.10;99.90
9998;DHT22;5038;53.064;8.624;2022-08-18T17:08:44;25.30;99.90
9998;DHT22;5038;53.064;8.624;2022-08-18T17:11:15;25.50;99.90
9998;DHT22;5038;53.064;8.624;2022-08-18T17:13:45;25.70;99.90